Time,TemperatureF,DewpointF,PressureIn,WindDirection,WindDirectionDegrees,WindSpeedMPH,WindSpeedGustMPH,Humidity,HourlyPrecipIn,Conditions,Clouds,dailyrainin,SoftwareType,DateUTC
2013-04-13 00:03:00,44.0,31.0,-100.00,SSW,195,3.0,9.0,61,0.00,,,-99.99,,2013-04-13 04:03:00,
2013-04-13 00:12:00,43.0,31.0,-100.00,SW,215,3.0,5.0,63,0.00,,,-99.99,,2013-04-13 04:12:00,
2013-04-13 00:23:00,42.0,32.0,-100.00,South,180,1.0,4.0,66,0.00,,,-99.99,,2013-04-13 04:23:00,
2013-04-13 00:33:00,42.0,32.0,-100.00,South,190,2.0,3.0,67,0.00,,,-99.99,,2013-04-13 04:33:00,
2013-04-13 00:42:00,40.0,33.0,-100.00,South,190,1.0,3.0,73,0.00,,,-99.99,,2013-04-13 04:42:00,
2013-04-13 00:53:00,41.0,33.0,-100.00,South,185,2.0,4.0,71,0.00,,,-99.99,,2013-04-13 04:53:00,
2013-04-13 01:03:00,40.0,33.0,-100.00,South,190,1.0,4.0,76,0.00,,,-99.99,,2013-04-13 05:03:00,
2013-04-13 01:12:00,38.0,33.0,-100.00,SW,235,0.0,2.0,81,0.00,,,-99.99,,2013-04-13 05:12:00,
2013-04-13 01:22:00,38.0,33.0,-100.00,WSW,250,1.0,3.0,79,0.00,,,-99.99,,2013-04-13 05:22:00,
2013-04-13 01:32:00,38.0,33.0,-100.00,SW,225,0.0,1.0,81,0.00,,,-99.99,,2013-04-13 05:32:00,
2013-04-13 01:43:00,37.0,33.0,-100.00,West,260,0.0,1.0,84,0.00,,,-99.99,,2013-04-13 05:43:00,
2013-04-13 01:52:00,37.0,33.0,-100.00,SW,230,1.0,2.0,86,0.00,,,-99.99,,2013-04-13 05:52:00,
2013-04-13 02:02:00,37.0,33.0,-100.00,SW,225,0.0,2.0,86,0.00,,,-99.99,,2013-04-13 06:02:00,
2013-04-13 02:12:00,37.0,33.0,-100.00,SW,220,0.0,2.0,86,0.00,,,-99.99,,2013-04-13 06:12:00,
2013-04-13 02:24:00,37.0,33.0,-100.00,SSW,195,0.0,3.0,87,0.00,,,-99.99,,2013-04-13 06:24:00,
2013-04-13 02:35:00,36.0,33.0,-100.00,SW,235,1.0,2.0,89,0.00,,,-99.99,,2013-04-13 06:35:00,
2013-04-13 02:49:00,36.0,33.0,-100.00,SW,230,1.0,3.0,87,0.00,,,-99.99,,2013-04-13 06:49:00,
2013-04-13 03:06:00,35.0,33.0,-100.00,SW,235,0.0,1.0,89,0.00,,,-99.99,,2013-04-13 07:06:00,
2013-04-13 03:15:00,35.0,33.0,-100.00,SW,230,1.0,2.0,93,0.00,,,-99.99,,2013-04-13 07:15:00,
2013-04-13 03:24:00,35.0,33.0,-100.00,WSW,250,1.0,2.0,93,0.00,,,-99.99,,2013-04-13 07:24:00,
2013-04-13 03:47:00,34.0,-99.9,-100.00,SW,215,0.0,0.0,-999,0.00,,,-99.99,,2013-04-13 07:47:00,
2013-04-13 03:59:00,34.0,-99.9,-100.00,SSE,160,0.0,1.0,-999,0.00,,,-99.99,,2013-04-13 07:59:00,
2013-04-13 04:08:00,34.0,-99.9,-100.00,WSW,245,0.0,1.0,-999,0.00,,,-99.99,,2013-04-13 08:08:00,
2013-04-13 04:18:00,34.0,-99.9,-100.00,SSW,205,0.0,1.0,-999,0.00,,,-99.99,,2013-04-13 08:18:00,
2013-04-13 04:27:00,34.0,-99.9,-100.00,SSW,200,0.0,0.0,-999,0.00,,,-99.99,,2013-04-13 08:27:00,
2013-04-13 04:36:00,33.0,-99.9,-100.00,SSW,200,0.0,1.0,-999,0.00,,,-99.99,,2013-04-13 08:36:00,
2013-04-13 04:48:00,33.0,-99.9,-100.00,SSW,205,0.0,1.0,-999,0.00,,,-99.99,,2013-04-13 08:48:00,
2013-04-13 04:55:00,33.0,-99.9,-100.00,South,175,0.0,2.0,-999,0.00,,,-99.99,,2013-04-13 08:55:00,
2013-04-13 05:07:00,33.0,-99.9,-100.00,SSE,165,0.0,1.0,-999,0.00,,,-99.99,,2013-04-13 09:07:00,
2013-04-13 05:38:00,33.0,-99.9,-100.00,SW,230,0.0,0.0,-999,0.00,,,-99.99,,2013-04-13 09:38:00,
2013-04-13 05:53:00,33.0,-99.9,-100.00,West,275,0.0,0.0,-999,0.00,,,-99.99,,2013-04-13 09:53:00,
2013-04-13 06:06:00,34.0,-99.9,-100.00,SW,235,0.0,0.0,-999,0.00,,,-99.99,,2013-04-13 10:06:00,
2013-04-13 06:17:00,33.0,-99.9,-100.00,SW,215,0.0,1.0,-999,0.00,,,-99.99,,2013-04-13 10:17:00,
2013-04-13 06:38:00,33.0,-99.9,-100.00,SW,215,0.0,0.0,-999,0.00,,,-99.99,,2013-04-13 10:38:00,
2013-04-13 06:52:00,34.0,-99.9,-100.00,SSW,200,0.0,1.0,-999,0.00,,,-99.99,,2013-04-13 10:52:00,
2013-04-13 07:08:00,36.0,-99.9,-100.00,NNE,25,0.0,0.0,-999,0.00,,,-99.99,,2013-04-13 11:08:00,
2013-04-13 07:13:00,36.0,35.0,-100.00,East,100,0.0,0.0,94,0.00,,,-99.99,,2013-04-13 11:13:00,
2013-04-13 07:24:00,37.0,33.0,-100.00,South,170,1.0,4.0,86,0.00,,,-99.99,,2013-04-13 11:24:00,
2013-04-13 07:34:00,37.0,32.0,-100.00,South,170,2.0,5.0,80,0.00,,,-99.99,,2013-04-13 11:34:00,
2013-04-13 07:44:00,38.0,33.0,-100.00,South,180,0.0,4.0,80,0.00,,,-99.99,,2013-04-13 11:44:00,
2013-04-13 07:53:00,38.0,33.0,-100.00,South,175,0.0,2.0,81,0.00,,,-99.99,,2013-04-13 11:53:00,
2013-04-13 08:08:00,38.0,33.0,-100.00,South,170,1.0,4.0,80,0.00,,,-99.99,,2013-04-13 12:08:00,
2013-04-13 08:15:00,39.0,33.0,-100.00,South,185,1.0,4.0,78,0.00,,,-99.99,,2013-04-13 12:15:00,
2013-04-13 08:25:00,39.0,33.0,-100.00,South,175,1.0,6.0,78,0.00,,,-99.99,,2013-04-13 12:25:00,
2013-04-13 08:36:00,40.0,33.0,-100.00,South,185,2.0,6.0,75,0.00,,,-99.99,,2013-04-13 12:36:00,
2013-04-13 08:47:00,41.0,33.0,-100.00,SSW,195,3.0,7.0,74,0.00,,,-99.99,,2013-04-13 12:47:00,
2013-04-13 08:54:00,42.0,33.0,-100.00,SSW,205,4.0,9.0,70,0.00,,,-99.99,,2013-04-13 12:54:00,
2013-04-13 09:15:00,43.0,33.0,-100.00,WSW,245,6.0,9.0,67,0.00,,,-99.99,,2013-04-13 13:15:00,
2013-04-13 09:35:00,44.0,33.0,-100.00,SW,230,6.0,12.0,65,0.00,,,-99.99,,2013-04-13 13:35:00,
2013-04-13 09:47:00,43.0,32.0,-100.00,WSW,240,6.0,12.0,64,0.00,,,-99.99,,2013-04-13 13:47:00,
2013-04-13 09:54:00,44.0,33.0,-100.00,SSW,205,6.0,9.0,65,0.00,,,-99.99,,2013-04-13 13:54:00,
2013-04-13 10:05:00,44.0,32.0,-100.00,West,270,2.0,9.0,60,0.00,,,-99.99,,2013-04-13 14:05:00,
2013-04-13 10:14:00,44.0,31.0,-100.00,WSW,250,9.0,13.0,59,0.00,,,-99.99,,2013-04-13 14:14:00,
2013-04-13 10:23:00,45.0,30.0,-100.00,WSW,255,8.0,15.0,55,0.00,,,-99.99,,2013-04-13 14:23:00,
2013-04-13 10:39:00,46.0,31.0,-100.00,South,185,3.0,15.0,55,0.00,,,-99.99,,2013-04-13 14:39:00,
2013-04-13 10:46:00,46.0,29.0,-100.00,SW,230,6.0,12.0,52,0.00,,,-99.99,,2013-04-13 14:46:00,
2013-04-13 10:55:00,46.0,29.0,-100.00,WSW,250,7.0,12.0,53,0.00,,,-99.99,,2013-04-13 14:55:00,
2013-04-13 11:05:00,47.0,32.0,-100.00,WNW,290,6.0,11.0,55,0.00,,,-99.99,,2013-04-13 15:05:00,
2013-04-13 11:14:00,46.0,29.0,-100.00,West,265,13.0,21.0,50,0.00,,,-99.99,,2013-04-13 15:14:00,
2013-04-13 11:29:00,46.0,31.0,-100.00,WSW,240,6.0,15.0,54,0.00,,,-99.99,,2013-04-13 15:29:00,
2013-04-13 11:37:00,47.0,31.0,-100.00,SW,235,10.0,16.0,52,0.00,,,-99.99,,2013-04-13 15:37:00,
2013-04-13 11:44:00,47.0,32.0,-100.00,WSW,250,5.0,16.0,55,0.00,,,-99.99,,2013-04-13 15:44:00,
2013-04-13 11:55:00,47.0,32.0,-100.00,WNW,285,7.0,16.0,56,0.00,,,-99.99,,2013-04-13 15:55:00,
2013-04-13 12:07:00,47.0,31.0,-100.00,WNW,290,7.0,15.0,51,0.00,,,-99.99,,2013-04-13 16:07:00,
2013-04-13 12:15:00,49.0,31.0,-100.00,WSW,240,7.0,12.0,50,0.00,,,-99.99,,2013-04-13 16:15:00,
2013-04-13 12:24:00,49.0,31.0,-100.00,WSW,245,9.0,15.0,50,0.00,,,-99.99,,2013-04-13 16:24:00,
2013-04-13 12:36:00,49.0,31.0,-100.00,SW,230,7.0,17.0,49,0.00,,,-99.99,,2013-04-13 16:36:00,
2013-04-13 12:45:00,49.0,32.0,-100.00,West,275,6.0,14.0,51,0.00,,,-99.99,,2013-04-13 16:45:00,
2013-04-13 12:54:00,49.0,30.0,-100.00,SW,220,9.0,16.0,46,0.00,,,-99.99,,2013-04-13 16:54:00,
2013-04-13 13:08:00,49.0,31.0,-100.00,WSW,245,8.0,16.0,49,0.00,,,-99.99,,2013-04-13 17:08:00,
2013-04-13 13:22:00,50.0,32.0,-100.00,SSW,210,4.0,12.0,48,0.00,,,-99.99,,2013-04-13 17:22:00,
2013-04-13 13:38:00,52.0,35.0,-100.00,WSW,255,7.0,15.0,51,0.00,,,-99.99,,2013-04-13 17:38:00,
2013-04-13 13:44:00,52.0,34.0,-100.00,West,265,9.0,19.0,49,0.00,,,-99.99,,2013-04-13 17:44:00,
2013-04-13 14:07:00,53.0,31.0,-100.00,West,260,8.0,16.0,43,0.00,,,-99.99,,2013-04-13 18:07:00,
2013-04-13 14:15:00,54.0,32.0,-100.00,WNW,290,6.0,16.0,42,0.00,,,-99.99,,2013-04-13 18:15:00,
2013-04-13 14:24:00,55.0,33.0,-100.00,WSW,250,9.0,16.0,42,0.00,,,-99.99,,2013-04-13 18:24:00,
2013-04-13 14:33:00,55.0,33.0,-100.00,SW,235,9.0,19.0,43,0.00,,,-99.99,,2013-04-13 18:33:00,
2013-04-13 14:42:00,55.0,33.0,-100.00,WSW,255,10.0,16.0,43,0.00,,,-99.99,,2013-04-13 18:42:00,
2013-04-13 14:52:00,56.0,33.0,-100.00,WSW,245,7.0,18.0,40,0.00,,,-99.99,,2013-04-13 18:52:00,
2013-04-13 15:03:00,57.0,32.0,-100.00,WSW,250,7.0,20.0,38,0.00,,,-99.99,,2013-04-13 19:03:00,
2013-04-13 15:12:00,57.0,34.0,-100.00,WSW,255,6.0,22.0,41,0.00,,,-99.99,,2013-04-13 19:12:00,
2013-04-13 15:22:00,58.0,33.0,-100.00,WSW,240,7.0,22.0,39,0.00,,,-99.99,,2013-04-13 19:22:00,
2013-04-13 15:32:00,56.0,33.0,-100.00,West,265,6.0,17.0,41,0.00,,,-99.99,,2013-04-13 19:32:00,
2013-04-13 15:42:00,56.0,34.0,-100.00,West,275,7.0,16.0,42,0.00,,,-99.99,,2013-04-13 19:42:00,
2013-04-13 15:52:00,56.0,32.0,-100.00,West,265,12.0,18.0,39,0.00,,,-99.99,,2013-04-13 19:52:00,
2013-04-13 16:02:00,55.0,32.0,-100.00,WNW,285,9.0,19.0,40,0.00,,,-99.99,,2013-04-13 20:02:00,
2013-04-13 16:12:00,56.0,31.0,-100.00,WSW,250,13.0,21.0,38,0.00,,,-99.99,,2013-04-13 20:12:00,
2013-04-13 16:22:00,58.0,32.0,-100.00,WSW,250,10.0,24.0,37,0.00,,,-99.99,,2013-04-13 20:22:00,
2013-04-13 16:32:00,56.0,31.0,-100.00,West,265,14.0,22.0,38,0.00,,,-99.99,,2013-04-13 20:32:00,
2013-04-13 16:42:00,57.0,35.0,-100.00,WNW,290,11.0,21.0,43,0.00,,,-99.99,,2013-04-13 20:42:00,
2013-04-13 16:52:00,57.0,33.0,-100.00,WNW,300,10.0,17.0,39,0.00,,,-99.99,,2013-04-13 20:52:00,
2013-04-13 17:02:00,56.0,31.0,-100.00,West,275,9.0,16.0,39,0.00,,,-99.99,,2013-04-13 21:02:00,
2013-04-13 17:12:00,56.0,33.0,-100.00,West,260,15.0,23.0,40,0.00,,,-99.99,,2013-04-13 21:12:00,
2013-04-13 17:22:00,57.0,34.0,-100.00,WSW,255,10.0,17.0,42,0.00,,,-99.99,,2013-04-13 21:22:00,
2013-04-13 17:33:00,57.0,32.0,-100.00,SSW,205,10.0,19.0,38,0.00,,,-99.99,,2013-04-13 21:33:00,
2013-04-13 17:43:00,58.0,33.0,-100.00,WSW,240,10.0,21.0,39,0.00,,,-99.99,,2013-04-13 21:43:00,
2013-04-13 17:52:00,57.0,31.0,-100.00,SW,230,12.0,21.0,37,0.00,,,-99.99,,2013-04-13 21:52:00,
2013-04-13 18:03:00,57.0,29.0,-100.00,WSW,245,12.0,22.0,34,0.00,,,-99.99,,2013-04-13 22:03:00,
2013-04-13 18:12:00,57.0,29.0,-100.00,West,265,11.0,22.0,34,0.00,,,-99.99,,2013-04-13 22:12:00,
2013-04-13 18:22:00,58.0,30.0,-100.00,WSW,250,12.0,29.0,34,0.00,,,-99.99,,2013-04-13 22:22:00,
2013-04-13 18:33:00,58.0,32.0,-100.00,SW,225,8.0,19.0,37,0.00,,,-99.99,,2013-04-13 22:33:00,
2013-04-13 18:42:00,57.0,29.0,-100.00,WSW,240,14.0,23.0,34,0.00,,,-99.99,,2013-04-13 22:42:00,
2013-04-13 18:52:00,57.0,31.0,-100.00,WSW,245,12.0,25.0,37,0.00,,,-99.99,,2013-04-13 22:52:00,
2013-04-13 19:02:00,57.0,31.0,-100.00,WSW,250,10.0,21.0,37,0.00,,,-99.99,,2013-04-13 23:02:00,
2013-04-13 19:12:00,56.0,32.0,-100.00,West,270,9.0,16.0,38,0.00,,,-99.99,,2013-04-13 23:12:00,
2013-04-13 19:22:00,56.0,31.0,-100.00,SW,225,7.0,12.0,37,0.00,,,-99.99,,2013-04-13 23:22:00,
2013-04-13 19:33:00,56.0,30.0,-100.00,WSW,240,6.0,18.0,37,0.00,,,-99.99,,2013-04-13 23:33:00,
2013-04-13 19:42:00,56.0,31.0,-100.00,WSW,245,9.0,19.0,38,0.00,,,-99.99,,2013-04-13 23:42:00,
2013-04-13 19:52:00,55.0,31.0,-100.00,West,265,4.0,14.0,40,0.00,,,-99.99,,2013-04-13 23:52:00,
2013-04-13 20:03:00,55.0,31.0,-100.00,West,260,5.0,9.0,39,0.00,,,-99.99,,2013-04-14 00:03:00,
2013-04-13 20:12:00,55.0,31.0,-100.00,SW,230,6.0,11.0,40,0.00,,,-99.99,,2013-04-14 00:12:00,
2013-04-13 20:22:00,54.0,31.0,-100.00,WSW,250,4.0,7.0,41,0.00,,,-99.99,,2013-04-14 00:22:00,
2013-04-13 20:32:00,53.0,31.0,-100.00,West,265,5.0,10.0,42,0.00,,,-99.99,,2013-04-14 00:32:00,
2013-04-13 20:42:00,53.0,33.0,-100.00,WNW,295,4.0,7.0,45,0.00,,,-99.99,,2013-04-14 00:42:00,
2013-04-13 20:52:00,52.0,34.0,-100.00,WNW,295,8.0,12.0,49,0.00,,,-99.99,,2013-04-14 00:52:00,
2013-04-13 21:02:00,51.0,35.0,-100.00,WNW,300,2.0,10.0,54,0.00,,,-99.99,,2013-04-14 01:02:00,
2013-04-13 21:12:00,50.0,36.0,-100.00,NNE,20,1.0,7.0,57,0.00,,,-99.99,,2013-04-14 01:12:00,
2013-04-13 21:22:00,50.0,36.0,-100.00,North,355,1.0,6.0,58,0.00,,,-99.99,,2013-04-14 01:22:00,
2013-04-13 21:32:00,49.0,36.0,-100.00,NNW,345,1.0,7.0,60,0.00,,,-99.99,,2013-04-14 01:32:00,
2013-04-13 21:42:00,48.0,36.0,-100.00,WNW,285,0.0,6.0,62,0.00,,,-99.99,,2013-04-14 01:42:00,
2013-04-13 21:52:00,48.0,36.0,-100.00,North,10,1.0,3.0,63,0.00,,,-99.99,,2013-04-14 01:52:00,
2013-04-13 22:02:00,48.0,36.0,-100.00,NNE,15,0.0,3.0,64,0.00,,,-99.99,,2013-04-14 02:02:00,
2013-04-13 22:12:00,47.0,36.0,-100.00,NW,305,0.0,1.0,65,0.00,,,-99.99,,2013-04-14 02:12:00,
2013-04-13 22:22:00,46.0,36.0,-100.00,NNE,25,0.0,2.0,67,0.00,,,-99.99,,2013-04-14 02:22:00,
2013-04-13 22:32:00,46.0,36.0,-100.00,NNE,15,3.0,7.0,68,0.00,,,-99.99,,2013-04-14 02:32:00,
2013-04-13 22:42:00,45.0,36.0,-100.00,North,0,0.0,3.0,70,0.00,,,-99.99,,2013-04-14 02:42:00,
2013-04-13 22:52:00,45.0,36.0,-100.00,North,0,0.0,3.0,72,0.00,,,-99.99,,2013-04-14 02:52:00,
2013-04-13 23:03:00,44.0,37.0,-100.00,North,350,1.0,2.0,74,0.00,,,-99.99,,2013-04-14 03:03:00,
2013-04-13 23:12:00,44.0,36.0,-100.00,NNE,25,0.0,4.0,73,0.00,,,-99.99,,2013-04-14 03:12:00,
2013-04-13 23:22:00,44.0,36.0,-100.00,NE,35,0.0,3.0,73,0.00,,,-99.99,,2013-04-14 03:22:00,
2013-04-13 23:33:00,44.0,36.0,-100.00,NNE,20,0.0,2.0,74,0.00,,,-99.99,,2013-04-14 03:33:00,
2013-04-13 23:42:00,43.0,36.0,-100.00,North,355,0.0,2.0,75,0.00,,,-99.99,,2013-04-14 03:42:00,
2013-04-13 23:53:00,43.0,36.0,-100.00,North,0,0.0,2.0,75,0.00,,,-99.99,,2013-04-14 03:53:00,